Time;durP1;ratioP1;P1;durP2;ratioP2;P2;SDS_P1;SDS_P2;PMS_P1;PMS_P2;Temp;Humidity;BMP_temperature;BMP_pressure;BME280_temperature;BME280_humidity;BME280_pressure;Samples;Min_cycle;Max_cycle;Signal;HPM_P1;HPM_P2
2021/12/07 00:05:38;;;;;;;8.35;3.38;;;1.90;99.90;;;;;;20812428;28;20041;-42
2021/12/07 00:15:40;;;;;;;4.95;2.08;;;2.00;99.90;;;;;;20811986;28;20034;-42
2021/12/07 00:25:41;;;;;;;7.57;2.33;;;2.10;99.90;;;;;;20805930;28;20048;-42
2021/12/07 00:35:43;;;;;;;12.18;2.75;;;2.20;99.90;;;;;;20803835;28;20041;-42
2021/12/07 00:45:46;;;;;;;5.85;2.58;;;2.40;99.90;;;;;;20812972;28;20395;-42
2021/12/07 00:55:51;;;;;;;7.95;2.95;;;2.50;99.90;;;;;;20816834;28;20044;-42
2021/12/07 01:06:04;;;;;;;8.05;2.45;;;2.70;99.90;;;;;;20816945;28;20045;-42
2021/12/07 01:26:26;;;;;;;6.47;2.70;;;2.80;99.90;;;;;;20815316;28;20667;-42
2021/12/07 01:46:47;;;;;;;;;;;2.70;99.90;;;;;;20807100;28;20044;-42
2021/12/07 02:07:08;;;;;;;3.08;1.10;;;2.70;99.90;;;;;;20813396;28;20045;-42
2021/12/07 02:17:15;;;;;;;2.65;0.82;;;2.90;99.90;;;;;;20813447;28;20041;-42
2021/12/07 02:27:16;;;;;;;3.00;2.00;;;3.10;99.90;;;;;;20813035;28;20501;-42
2021/12/07 02:37:21;;;;;;;1.30;0.50;;;3.80;99.90;;;;;;20813535;28;20472;-42
2021/12/07 02:47:22;;;;;;;1.60;0.32;;;4.10;99.90;;;;;;20812981;28;20944;-42
2021/12/07 02:57:24;;;;;;;0.68;0.10;;;4.30;99.90;;;;;;20812744;28;20044;-42
2021/12/07 03:28:02;;;;;;;1.95;0.30;;;4.40;99.90;;;;;;20808710;28;20396;-42
2021/12/07 03:38:06;;;;;;;1.15;0.38;;;4.30;99.90;;;;;;20804448;28;20049;-42
2021/12/07 03:48:09;;;;;;;3.90;0.40;;;4.30;99.90;;;;;;20808487;28;20040;-42
2021/12/07 03:58:10;;;;;;;0.60;0.20;;;4.30;99.90;;;;;;20810349;28;20049;-42
2021/12/07 04:08:14;;;;;;;0.95;0.32;;;4.20;99.90;;;;;;20812437;28;20512;-42
2021/12/07 04:18:15;;;;;;;2.08;0.30;;;3.90;99.90;;;;;;20822665;28;20048;-42
2021/12/07 04:28:16;;;;;;;1.02;0.50;;;3.70;99.90;;;;;;20826881;28;20037;-42
2021/12/07 04:38:18;;;;;;;2.08;0.30;;;3.40;99.90;;;;;;20815465;28;20049;-42
2021/12/07 04:58:21;;;;;;;0.68;0.30;;;3.20;99.90;;;;;;20831838;28;20044;-42
2021/12/07 05:08:39;;;;;;;2.33;0.50;;;3.10;99.90;;;;;;20829384;28;20041;-42
2021/12/07 05:39:20;;;;;;;2.05;0.47;;;3.00;99.90;;;;;;20826432;28;20504;-42
2021/12/07 05:49:24;;;;;;;2.92;0.52;;;2.90;99.90;;;;;;20826927;28;20096;-42
2021/12/07 05:59:25;;;;;;;8.48;0.50;;;2.80;99.90;;;;;;20825010;28;20040;-42
2021/12/07 06:09:27;;;;;;;4.32;0.43;;;2.80;99.90;;;;;;20825781;28;20056;-42
2021/12/07 06:19:28;;;;;;;1.63;0.38;;;2.70;99.90;;;;;;20826656;28;20070;-42
2021/12/07 06:29:29;;;;;;;0.17;0.10;;;2.50;99.90;;;;;;20822969;28;20044;-42
2021/12/07 06:39:30;;;;;;;0.60;0.30;;;2.30;99.90;;;;;;20820910;28;20052;-42
2021/12/07 06:49:33;;;;;;;0.98;0.40;;;2.10;99.90;;;;;;20824665;28;20037;-42
2021/12/07 06:59:34;;;;;;;1.90;0.70;;;2.10;99.90;;;;;;20823780;28;20041;-42
2021/12/07 07:09:35;;;;;;;1.77;0.57;;;2.10;99.90;;;;;;20823973;28;20045;-42
2021/12/07 07:19:36;;;;;;;3.05;0.50;;;2.10;99.90;;;;;;20823078;28;20380;-42
2021/12/07 07:29:37;;;;;;;1.02;0.52;;;2.10;99.90;;;;;;20819107;28;20040;-42
2021/12/07 07:39:39;;;;;;;1.52;0.60;;;2.30;99.90;;;;;;20818210;28;20049;-42
2021/12/07 07:49:40;;;;;;;2.67;0.60;;;2.30;99.90;;;;;;20821588;28;20436;-42
2021/12/07 07:59:41;;;;;;;7.15;1.10;;;2.40;99.90;;;;;;20829901;28;20409;-42
2021/12/07 08:09:43;;;;;;;5.10;0.88;;;2.60;99.90;;;;;;20784008;28;20048;-42
2021/12/07 08:19:44;;;;;;;1.67;0.88;;;2.80;99.90;;;;;;20802292;28;20041;-42
2021/12/07 08:29:45;;;;;;;1.60;0.35;;;3.10;99.90;;;;;;20822319;28;20041;-42
2021/12/07 08:39:46;;;;;;;3.97;0.93;;;3.20;99.90;;;;;;20831108;28;20100;-42
2021/12/07 08:49:47;;;;;;;1.05;0.50;;;3.40;99.90;;;;;;20833088;28;20656;-42
2021/12/07 08:59:48;;;;;;;6.72;1.33;;;3.40;99.90;;;;;;20811837;28;20037;-42
2021/12/07 09:09:50;;;;;;;7.47;0.70;;;3.50;99.90;;;;;;20826230;28;20037;-42
2021/12/07 09:19:51;;;;;;;1.48;0.50;;;3.80;99.90;;;;;;20807697;28;20056;-42
2021/12/07 09:29:54;;;;;;;6.28;0.82;;;3.90;99.90;;;;;;20824254;28;20041;-42
2021/12/07 09:39:56;;;;;;;7.13;1.00;;;3.90;99.90;;;;;;20819881;28;20056;-42
2021/12/07 09:49:57;;;;;;;3.10;1.40;;;4.00;99.90;;;;;;20819093;28;20592;-42
2021/12/07 09:59:58;;;;;;;2.90;1.33;;;4.20;99.90;;;;;;20824013;28;20049;-42
2021/12/07 10:10:00;;;;;;;5.85;2.05;;;4.50;99.90;;;;;;20781760;28;20044;-42
2021/12/07 10:20:37;;;;;;;5.68;2.47;;;4.70;99.90;;;;;;20813735;28;20060;-42
2021/12/07 10:30:39;;;;;;;7.90;2.60;;;5.10;99.90;;;;;;20776663;28;20063;-42
2021/12/07 10:41:02;;;;;;;11.32;2.72;;;5.40;99.90;;;;;;20820154;28;20030;-42
2021/12/07 10:51:10;;;;;;;9.07;2.35;;;5.70;99.90;;;;;;20806045;28;20483;-42
2021/12/07 11:01:12;;;;;;;16.63;3.30;;;6.10;99.90;;;;;;20815148;28;20425;-42
2021/12/07 11:11:13;;;;;;;7.30;2.13;;;6.60;99.90;;;;;;20811606;28;21014;-42
2021/12/07 11:21:17;;;;;;;4.65;1.92;;;7.20;99.90;;;;;;20809530;28;20123;-42
2021/12/07 11:31:23;;;;;;;8.82;2.22;;;7.50;99.90;;;;;;20826297;28;20045;-42
2021/12/07 11:41:32;;;;;;;8.50;1.85;;;7.80;99.90;;;;;;20826172;28;20422;-42
2021/12/07 11:51:34;;;;;;;6.70;1.70;;;7.90;99.90;;;;;;20819024;28;20512;-42
2021/12/07 12:01:35;;;;;;;4.13;1.50;;;7.90;99.90;;;;;;20821973;28;20033;-42
2021/12/07 12:11:36;;;;;;;12.00;2.20;;;7.80;99.90;;;;;;20816793;28;20053;-42
2021/12/07 12:21:47;;;;;;;11.55;2.58;;;7.40;99.90;;;;;;20797770;28;20047;-42
2021/12/07 12:31:55;;;;;;;5.45;1.15;;;7.50;99.90;;;;;;20780001;28;20256;-42
2021/12/07 12:41:59;;;;;;;4.78;1.10;;;7.10;99.90;;;;;;20827913;28;20052;-42
2021/12/07 12:52:01;;;;;;;3.33;0.98;;;6.80;99.90;;;;;;20829902;28;20054;-42
2021/12/07 13:02:02;;;;;;;3.30;1.20;;;6.60;99.90;;;;;;20823340;28;20037;-42
2021/12/07 13:12:19;;;;;;;5.32;1.40;;;6.20;99.90;;;;;;20834506;28;20041;-42
2021/12/07 13:22:20;;;;;;;3.80;1.20;;;6.00;99.90;;;;;;20819196;28;20666;-42
2021/12/07 13:32:22;;;;;;;7.72;1.23;;;5.90;99.90;;;;;;20816319;28;20474;-43
2021/12/07 13:42:28;;;;;;;7.57;1.08;;;5.90;99.90;;;;;;20814502;28;20033;-42
2021/12/07 13:52:36;;;;;;;2.33;1.37;;;5.90;99.90;;;;;;20828151;28;20049;-42
2021/12/07 14:02:39;;;;;;;4.35;1.02;;;5.80;99.90;;;;;;20821341;28;20037;-42
2021/12/07 14:12:40;;;;;;;5.20;1.38;;;5.80;99.90;;;;;;20810809;28;20033;-43
2021/12/07 14:22:45;;;;;;;4.28;1.40;;;5.70;99.90;;;;;;20822303;28;20040;-42
2021/12/07 14:32:51;;;;;;;2.60;0.90;;;5.60;99.90;;;;;;20808921;28;20037;-42
2021/12/07 14:42:53;;;;;;;10.63;2.60;;;5.60;99.90;;;;;;20785918;28;20044;-43
2021/12/07 14:52:54;;;;;;;6.20;1.05;;;5.50;99.90;;;;;;20773686;28;20076;-43
2021/12/07 15:02:55;;;;;;;2.60;1.17;;;5.40;99.90;;;;;;20765655;28;20040;-42
2021/12/07 15:12:59;;;;;;;2.85;0.80;;;5.40;99.90;;;;;;20776604;28;20049;-42
2021/12/07 15:23:00;;;;;;;2.45;0.50;;;5.30;99.90;;;;;;20745339;28;20037;-43
2021/12/07 15:33:03;;;;;;;5.75;1.40;;;5.30;99.90;;;;;;20786128;28;20037;-43
2021/12/07 15:43:05;;;;;;;1.90;0.80;;;5.30;99.90;;;;;;20799238;28;20060;-42
2021/12/07 15:53:14;;;;;;;3.65;0.60;;;5.30;99.90;;;;;;20798698;28;20052;-43
2021/12/07 16:03:19;;;;;;;3.90;0.45;;;5.40;99.90;;;;;;20804368;28;20033;-43
2021/12/07 16:13:25;;;;;;;1.45;0.40;;;5.40;99.90;;;;;;20780722;28;20040;-42
2021/12/07 16:23:31;;;;;;;2.40;0.77;;;5.50;99.90;;;;;;20811514;28;20041;-43
2021/12/07 16:33:33;;;;;;;2.70;0.70;;;5.40;99.90;;;;;;20806206;28;20037;-42
2021/12/07 16:43:34;;;;;;;3.50;0.93;;;5.50;99.90;;;;;;20803673;28;20061;-43
2021/12/07 16:53:36;;;;;;;1.90;0.73;;;5.50;99.90;;;;;;20801648;28;20471;-42
2021/12/07 17:03:39;;;;;;;3.13;1.20;;;5.50;99.90;;;;;;20800061;28;20045;-43
2021/12/07 17:13:41;;;;;;;1.48;0.60;;;5.50;99.90;;;;;;20760730;28;20431;-42
2021/12/07 17:23:42;;;;;;;1.80;0.70;;;5.50;99.90;;;;;;20791581;28;20041;-43
2021/12/07 17:33:43;;;;;;;3.42;0.93;;;5.50;99.90;;;;;;20820843;28;20049;-42
2021/12/07 17:43:49;;;;;;;2.35;1.08;;;5.50;99.90;;;;;;20814406;28;21549;-43
2021/12/07 17:53:50;;;;;;;1.23;0.40;;;5.50;99.90;;;;;;20785654;28;20045;-43
2021/12/07 18:03:52;;;;;;;6.80;0.73;;;5.50;99.90;;;;;;20806966;28;20045;-42
2021/12/07 18:13:53;;;;;;;2.20;1.00;;;5.50;99.90;;;;;;20813845;28;20055;-42
2021/12/07 18:23:56;;;;;;;4.55;0.70;;;5.40;99.90;;;;;;20808820;28;20130;-43
2021/12/07 18:33:57;;;;;;;2.08;0.68;;;5.50;99.90;;;;;;20809392;28;20424;-42
2021/12/07 18:44:01;;;;;;;1.38;0.60;;;5.40;99.90;;;;;;20811968;28;20048;-42
2021/12/07 18:54:03;;;;;;;2.15;0.63;;;5.40;99.90;;;;;;20815149;28;20041;-42
2021/12/07 19:04:05;;;;;;;2.08;0.60;;;5.40;99.90;;;;;;20807416;28;20523;-42
2021/12/07 19:14:10;;;;;;;1.85;0.68;;;5.40;99.90;;;;;;20779191;28;20045;-42
2021/12/07 19:24:11;;;;;;;3.53;1.10;;;5.40;99.90;;;;;;20781049;28;20749;-42
2021/12/07 19:34:12;;;;;;;2.10;0.85;;;5.40;99.90;;;;;;20779327;28;20045;-42
2021/12/07 19:44:14;;;;;;;3.03;0.98;;;5.30;99.90;;;;;;20802787;28;20036;-42
2021/12/07 19:54:18;;;;;;;2.63;0.75;;;5.20;99.90;;;;;;20816494;28;20041;-42
2021/12/07 20:04:21;;;;;;;2.35;1.00;;;5.20;99.90;;;;;;20779853;28;20614;-42
2021/12/07 20:14:27;;;;;;;9.93;1.30;;;5.00;99.90;;;;;;20813179;28;20507;-42
2021/12/07 20:24:28;;;;;;;1.90;0.82;;;4.90;99.90;;;;;;20816037;28;20042;-42
2021/12/07 20:34:31;;;;;;;11.45;1.65;;;4.80;99.90;;;;;;20817492;28;20598;-42
2021/12/07 20:44:32;;;;;;;2.45;0.68;;;4.80;99.90;;;;;;20809110;28;20403;-43
2021/12/07 20:54:34;;;;;;;2.10;0.65;;;4.60;99.90;;;;;;20801658;28;20057;-43
2021/12/07 21:04:35;;;;;;;1.90;0.80;;;4.60;99.90;;;;;;20830295;28;20067;-43
2021/12/07 21:14:37;;;;;;;1.50;0.80;;;4.60;99.90;;;;;;20829627;28;20056;-42
2021/12/07 21:24:40;;;;;;;1.25;0.55;;;4.50;99.90;;;;;;20829029;28;20103;-42
2021/12/07 21:34:42;;;;;;;1.30;0.68;;;4.60;99.90;;;;;;20822025;28;20038;-42
2021/12/07 21:44:44;;;;;;;2.22;0.70;;;4.70;99.90;;;;;;20821145;28;20041;-42
2021/12/07 21:54:47;;;;;;;3.25;0.80;;;4.80;99.90;;;;;;20824554;28;20479;-43
2021/12/07 22:04:49;;;;;;;6.15;0.90;;;4.70;99.90;;;;;;20834858;28;20033;-44
2021/12/07 22:14:50;;;;;;;2.17;0.68;;;4.60;99.90;;;;;;20828602;28;20045;-43
2021/12/07 22:24:51;;;;;;;5.03;0.90;;;4.60;99.90;;;;;;20832827;28;20853;-43
2021/12/07 22:34:53;;;;;;;5.13;1.08;;;4.70;99.90;;;;;;20826658;28;20041;-43
2021/12/07 22:44:55;;;;;;;2.83;0.90;;;4.70;99.90;;;;;;20826109;28;20496;-43
2021/12/07 22:54:57;;;;;;;5.55;1.17;;;4.70;99.90;;;;;;20832474;28;20049;-43
2021/12/07 23:05:03;;;;;;;2.20;1.27;;;4.90;99.90;;;;;;20824028;28;20040;-42
2021/12/07 23:15:07;;;;;;;3.93;1.27;;;4.90;99.90;;;;;;20821357;28;20049;-42
2021/12/07 23:25:16;;;;;;;3.53;1.13;;;4.90;99.90;;;;;;20819146;28;20075;-43
2021/12/07 23:35:17;;;;;;;2.58;0.82;;;4.90;99.90;;;;;;20823820;28;20046;-43
2021/12/07 23:45:20;;;;;;;3.17;0.98;;;4.80;99.90;;;;;;20816714;28;20038;-42
2021/12/07 23:55:21;;;;;;;2.63;1.05;;;4.90;99.90;;;;;;20813558;28;20063;-43
